createdAt,value
2022-10-02T00:01:55.725Z,11.98
2022-10-02T00:04:44.505Z,7.05
2022-10-02T00:07:14.770Z,6.82
2022-10-02T00:09:56.594Z,5.60
2022-10-02T00:12:26.684Z,7.03
2022-10-02T00:15:00.671Z,6.25
2022-10-02T00:17:33.496Z,7.68
2022-10-02T00:22:47.587Z,4.43
2022-10-02T00:25:16.982Z,4.60
2022-10-02T00:27:56.138Z,7.72
2022-10-02T00:30:23.047Z,5.43
2022-10-02T00:33:18.008Z,8.07
2022-10-02T00:36:18.111Z,4.03
2022-10-02T00:38:54.801Z,5.40
2022-10-02T00:41:57.451Z,4.88
2022-10-02T00:44:45.213Z,5.73
2022-10-02T00:47:39.717Z,8.35
2022-10-02T00:50:21.240Z,5.03
2022-10-02T00:53:22.341Z,4.53
2022-10-02T00:55:57.534Z,5.80
2022-10-02T00:58:42.446Z,6.93
2022-10-02T01:01:15.372Z,6.85
2022-10-02T01:06:25.706Z,3.50
2022-10-02T01:08:52.809Z,4.70
2022-10-02T01:11:24.254Z,5.10
2022-10-02T01:13:51.434Z,5.97
2022-10-02T01:16:18.297Z,3.92
2022-10-02T01:18:47.989Z,6.18
2022-10-02T01:21:37.627Z,2.92
2022-10-02T01:24:12.503Z,3.63
2022-10-02T01:26:39.255Z,2.53
2022-10-02T01:29:08.267Z,6.50
2022-10-02T01:31:35.973Z,4.07
2022-10-02T01:34:03.307Z,5.53
2022-10-02T01:36:30.447Z,6.55
2022-10-02T01:38:58.888Z,6.28
2022-10-02T01:41:25.855Z,3.83
2022-10-02T01:43:56.292Z,5.30
2022-10-02T01:46:31.580Z,3.95
2022-10-02T01:49:16.414Z,6.57
2022-10-02T01:52:02.269Z,3.40
2022-10-02T01:54:56.724Z,2.55
2022-10-02T01:57:35.207Z,2.67
2022-10-02T02:00:51.656Z,1.70
2022-10-02T02:03:35.015Z,4.85
2022-10-02T02:06:30.048Z,2.00
2022-10-02T02:09:10.399Z,2.63
2022-10-02T02:11:44.743Z,1.33
2022-10-02T02:14:26.587Z,1.10
2022-10-02T02:17:01.770Z,4.80
2022-10-02T02:19:59.416Z,3.30
2022-10-02T02:22:34.344Z,1.15
2022-10-02T02:25:15.343Z,3.38
2022-10-02T02:27:46.995Z,2.08
2022-10-02T02:30:15.450Z,1.85
2022-10-02T02:32:56.895Z,1.50
2022-10-02T02:35:27.755Z,1.67
2022-10-02T02:37:59.959Z,1.25
2022-10-02T02:40:30.503Z,1.38
2022-10-02T02:43:02.629Z,2.47
2022-10-02T02:45:37.662Z,4.75
2022-10-02T02:48:10.442Z,1.58
2022-10-02T02:51:18.634Z,2.95
2022-10-02T02:54:00.347Z,2.67
2022-10-02T02:56:30.016Z,3.25
2022-10-02T02:59:06.059Z,3.35
2022-10-02T03:01:32.803Z,2.78
2022-10-02T03:03:59.530Z,0.50
2022-10-02T03:06:45.286Z,1.10
2022-10-02T03:09:22.548Z,1.98
2022-10-02T03:12:28.077Z,0.93
2022-10-02T03:15:16.174Z,1.85
2022-10-02T03:18:24.102Z,1.08
2022-10-02T03:21:07.973Z,1.20
2022-10-02T03:23:40.436Z,0.57
2022-10-02T03:26:21.244Z,2.08
2022-10-02T03:28:56.352Z,0.90
2022-10-02T03:31:27.831Z,1.45
2022-10-02T03:33:57.556Z,1.70
2022-10-02T03:36:25.330Z,1.15
2022-10-02T03:39:23.654Z,1.70
2022-10-02T03:41:47.158Z,3.10
2022-10-02T03:44:13.739Z,0.50
2022-10-02T03:46:40.578Z,1.65
2022-10-02T03:49:07.405Z,0.52
2022-10-02T03:51:34.247Z,0.40
2022-10-02T03:54:00.950Z,1.10
2022-10-02T03:56:41.369Z,1.50
2022-10-02T03:59:15.751Z,3.35
2022-10-02T04:01:50.662Z,1.27
2022-10-02T04:04:26.906Z,1.95
2022-10-02T04:07:00.980Z,0.30
2022-10-02T04:09:43.457Z,0.68
2022-10-02T04:12:19.414Z,1.27
2022-10-02T04:15:05.384Z,0.47
2022-10-02T04:17:44.196Z,2.65
2022-10-02T04:20:18.439Z,2.33
2022-10-02T04:22:55.947Z,0.68
2022-10-02T04:25:26.634Z,1.65
2022-10-02T04:27:59.108Z,1.30
2022-10-02T04:30:25.914Z,4.57
2022-10-02T04:32:53.983Z,2.45
2022-10-02T04:35:40.126Z,1.50
2022-10-02T04:38:15.942Z,1.90
2022-10-02T04:40:50.165Z,0.88
2022-10-02T04:43:54.222Z,1.42
2022-10-02T04:46:41.971Z,1.60
2022-10-02T04:49:54.553Z,6.50
2022-10-02T04:53:01.893Z,1.73
2022-10-02T04:55:28.509Z,1.08
2022-10-02T04:58:20.323Z,1.85
2022-10-02T05:01:02.162Z,2.22
2022-10-02T05:03:37.804Z,0.80
2022-10-02T05:06:22.736Z,1.15
2022-10-02T05:09:29.620Z,3.33
2022-10-02T05:11:58.847Z,2.35
2022-10-02T05:14:52.628Z,3.13
2022-10-02T05:17:53.878Z,2.13
2022-10-02T05:20:55.051Z,1.35
2022-10-02T05:23:51.091Z,1.00
2022-10-02T05:26:17.630Z,1.15
2022-10-02T05:29:02.575Z,3.33
2022-10-02T05:31:36.011Z,1.83
2022-10-02T05:34:12.943Z,1.20
2022-10-02T05:37:04.603Z,1.80
2022-10-02T05:39:34.621Z,3.85
2022-10-02T05:42:08.901Z,1.98
2022-10-02T05:44:43.190Z,3.10
2022-10-02T05:47:09.837Z,3.75
2022-10-02T05:49:43.314Z,3.67
2022-10-02T05:52:21.040Z,1.75
2022-10-02T05:55:21.814Z,2.75
2022-10-02T05:57:48.362Z,1.67
2022-10-02T06:00:32.712Z,2.40
2022-10-02T06:03:17.810Z,1.95
2022-10-02T06:06:00.297Z,1.73
2022-10-02T06:08:38.982Z,2.53
2022-10-02T06:11:11.901Z,2.83
2022-10-02T06:13:51.108Z,5.13
2022-10-02T06:16:23.463Z,4.43
2022-10-02T06:18:57.254Z,4.90
2022-10-02T06:21:33.107Z,1.77
2022-10-02T06:24:05.707Z,3.25
2022-10-02T06:26:49.387Z,2.90
2022-10-02T06:29:27.353Z,4.97
2022-10-02T06:32:16.056Z,2.70
2022-10-02T06:34:47.955Z,3.47
2022-10-02T06:37:34.195Z,4.93
2022-10-02T06:40:37.861Z,4.65
2022-10-02T06:43:18.383Z,3.05
2022-10-02T06:46:41.709Z,3.13
2022-10-02T06:49:22.498Z,2.85
2022-10-02T06:52:06.161Z,4.53
2022-10-02T06:54:51.190Z,4.43
2022-10-02T06:57:30.239Z,6.65
2022-10-02T07:00:05.904Z,3.13
2022-10-02T07:02:32.748Z,2.90
2022-10-02T07:05:36.995Z,3.78
2022-10-02T07:08:28.324Z,1.67
2022-10-02T07:11:23.928Z,4.68
2022-10-02T07:14:09.010Z,4.32
2022-10-02T07:17:02.142Z,2.47
2022-10-02T07:20:07.806Z,3.55
2022-10-02T07:22:52.011Z,2.42
2022-10-02T07:25:49.776Z,2.53
2022-10-02T07:28:19.462Z,1.27
2022-10-02T07:30:46.106Z,1.48
2022-10-02T07:33:51.820Z,3.17
2022-10-02T07:36:27.266Z,5.18
2022-10-02T07:39:11.495Z,2.72
2022-10-02T07:41:56.362Z,2.35
2022-10-02T07:45:04.968Z,2.00
2022-10-02T07:48:02.680Z,1.40
2022-10-02T07:50:59.989Z,1.52
2022-10-02T07:53:39.077Z,1.88
2022-10-02T07:56:09.163Z,1.08
2022-10-02T07:58:42.031Z,1.77
2022-10-02T08:01:17.560Z,1.45
2022-10-02T08:04:13.723Z,2.55
2022-10-02T08:06:41.604Z,2.28
2022-10-02T08:09:17.730Z,3.47
2022-10-02T08:12:17.933Z,1.33
2022-10-02T08:14:46.799Z,2.55
2022-10-02T08:17:34.672Z,0.98
2022-10-02T08:20:32.739Z,1.10
2022-10-02T08:23:51.061Z,1.38
2022-10-02T08:26:35.616Z,4.32
2022-10-02T08:29:12.144Z,2.75
2022-10-02T08:31:39.011Z,2.83
2022-10-02T08:34:26.242Z,3.67
2022-10-02T08:37:29.695Z,1.48
2022-10-02T08:40:14.670Z,3.92
2022-10-02T08:43:18.421Z,1.40
2022-10-02T08:46:02.457Z,1.80
2022-10-02T08:48:41.098Z,1.00
2022-10-02T08:51:20.780Z,0.93
2022-10-02T08:54:02.128Z,2.15
2022-10-02T08:56:49.233Z,0.90
2022-10-02T08:59:28.376Z,3.22
2022-10-02T09:02:29.928Z,0.60
2022-10-02T09:05:21.172Z,2.10
2022-10-02T09:08:14.703Z,1.15
2022-10-02T09:11:08.908Z,1.35
2022-10-02T09:13:56.419Z,1.45
2022-10-02T09:16:53.263Z,1.63
2022-10-02T09:19:57.302Z,2.63
2022-10-02T09:22:38.789Z,1.48
2022-10-02T09:25:19.175Z,2.67
2022-10-02T09:28:05.212Z,1.35
2022-10-02T09:30:39.374Z,1.20
2022-10-02T09:33:27.610Z,1.25
2022-10-02T09:36:15.274Z,2.85
2022-10-02T09:39:05.573Z,3.40
2022-10-02T09:42:05.001Z,1.83
2022-10-02T09:45:05.339Z,1.80
2022-10-02T09:47:43.903Z,1.08
2022-10-02T09:50:23.198Z,0.88
2022-10-02T09:53:08.089Z,4.75
2022-10-02T09:55:50.149Z,1.10
2022-10-02T09:58:46.118Z,3.03
2022-10-02T10:01:40.876Z,3.65
2022-10-02T10:05:04.559Z,1.92
2022-10-02T10:08:12.633Z,3.00
2022-10-02T10:10:51.050Z,1.25
2022-10-02T10:13:22.196Z,3.35
2022-10-02T10:16:14.276Z,1.13
2022-10-02T10:19:03.100Z,2.10
2022-10-02T10:21:54.018Z,1.67
2022-10-02T10:24:58.420Z,1.98
2022-10-02T10:27:54.768Z,2.90
2022-10-02T10:30:38.301Z,4.30
2022-10-02T10:33:24.456Z,1.73
2022-10-02T10:36:09.119Z,1.27
2022-10-02T10:38:44.102Z,6.38
2022-10-02T10:41:39.754Z,2.97
2022-10-02T10:44:34.405Z,2.55
2022-10-02T10:47:43.725Z,1.80
2022-10-02T10:50:23.974Z,1.80
2022-10-02T10:53:07.113Z,1.67
2022-10-02T10:55:46.240Z,4.80
2022-10-02T10:58:21.354Z,3.80
2022-10-02T11:00:56.485Z,3.72
2022-10-02T11:03:51.347Z,2.45
2022-10-02T11:06:51.274Z,1.35
2022-10-02T11:09:29.083Z,1.52
2022-10-02T11:12:14.140Z,1.67
2022-10-02T11:15:05.171Z,2.72
2022-10-02T11:17:54.138Z,3.97
2022-10-02T11:20:56.548Z,2.80
2022-10-02T11:23:58.878Z,3.07
2022-10-02T11:26:34.434Z,2.58
2022-10-02T11:29:11.229Z,2.90
2022-10-02T11:31:47.079Z,2.97
2022-10-02T11:34:51.490Z,2.33
2022-10-02T11:38:03.618Z,2.60
2022-10-02T11:40:34.115Z,6.33
2022-10-02T11:43:13.885Z,11.50
2022-10-02T11:46:17.620Z,11.75
2022-10-02T11:49:02.590Z,6.85
2022-10-02T11:51:37.681Z,3.70
2022-10-02T11:54:17.953Z,2.65
2022-10-02T11:56:47.475Z,3.80
2022-10-02T11:59:35.046Z,3.88
2022-10-02T12:02:39.094Z,3.90
2022-10-02T12:05:32.798Z,3.22
2022-10-02T12:08:10.747Z,1.83
2022-10-02T12:10:55.323Z,3.53
2022-10-02T12:13:54.656Z,1.63
2022-10-02T12:16:56.622Z,1.23
2022-10-02T12:19:23.253Z,1.42
2022-10-02T12:22:30.550Z,1.58
2022-10-02T12:25:21.913Z,1.92
2022-10-02T12:28:13.655Z,3.55
2022-10-02T12:30:55.054Z,1.95
2022-10-02T12:33:21.606Z,2.38
2022-10-02T12:35:59.748Z,1.13
2022-10-02T12:38:57.306Z,3.03
2022-10-02T12:41:44.813Z,2.17
2022-10-02T12:44:39.251Z,1.60
2022-10-02T12:47:12.451Z,3.22
2022-10-02T12:49:47.929Z,1.70
2022-10-02T12:52:32.816Z,1.42
2022-10-02T12:55:08.666Z,2.00
2022-10-02T12:57:53.181Z,2.47
2022-10-02T13:00:24.119Z,1.38
2022-10-02T13:03:01.790Z,2.33
2022-10-02T13:05:51.338Z,2.00
2022-10-02T13:08:28.142Z,5.03
2022-10-02T13:11:23.003Z,2.88
2022-10-02T13:14:25.190Z,1.95
2022-10-02T13:16:58.263Z,2.10
2022-10-02T13:19:35.547Z,3.55
2022-10-02T13:22:16.509Z,5.00
2022-10-02T13:24:43.094Z,2.45
2022-10-02T13:27:40.062Z,2.55
2022-10-02T13:30:24.079Z,2.50
2022-10-02T13:33:09.801Z,3.15
2022-10-02T13:35:46.715Z,2.13
2022-10-02T13:38:35.909Z,3.65
2022-10-02T13:41:26.694Z,1.80
2022-10-02T13:44:07.119Z,1.83
2022-10-02T13:46:51.429Z,1.98
2022-10-02T13:49:42.214Z,2.50
2022-10-02T13:52:30.298Z,2.13
2022-10-02T13:55:17.541Z,4.18
2022-10-02T13:58:15.829Z,5.32
2022-10-02T14:00:48.457Z,2.53
2022-10-02T14:03:52.720Z,2.92
2022-10-02T14:06:25.611Z,1.63
2022-10-02T14:09:12.335Z,2.55
2022-10-02T14:11:56.374Z,3.25
2022-10-02T14:14:49.982Z,2.15
2022-10-02T14:17:49.447Z,1.30
2022-10-02T14:20:35.075Z,1.30
2022-10-02T14:23:15.423Z,2.17
2022-10-02T14:25:56.827Z,3.22
2022-10-02T14:28:45.037Z,1.67
2022-10-02T14:31:17.784Z,2.25
2022-10-02T14:34:03.095Z,3.33
2022-10-02T14:36:35.949Z,2.28
2022-10-02T14:39:11.362Z,0.65
2022-10-02T14:41:51.883Z,3.13
2022-10-02T14:44:40.786Z,1.10
2022-10-02T14:47:28.883Z,1.33
2022-10-02T14:50:18.780Z,3.03
2022-10-02T14:53:04.604Z,3.38
2022-10-02T14:55:43.107Z,3.58
2022-10-02T14:58:28.990Z,0.98
2022-10-02T15:01:21.356Z,2.72
2022-10-02T15:04:06.574Z,0.68
2022-10-02T15:06:42.222Z,2.55
2022-10-02T15:09:11.680Z,1.30
2022-10-02T15:11:38.997Z,3.15
2022-10-02T15:14:31.969Z,1.13
2022-10-02T15:17:22.048Z,1.13
2022-10-02T15:19:54.908Z,2.35
2022-10-02T15:22:56.552Z,0.98
2022-10-02T15:25:29.239Z,1.63
2022-10-02T15:28:35.305Z,1.25
2022-10-02T15:31:10.257Z,2.38
2022-10-02T15:33:55.927Z,1.88
2022-10-02T15:36:41.943Z,2.75
2022-10-02T15:39:33.382Z,3.88
2022-10-02T15:42:10.731Z,6.35
2022-10-02T15:44:52.492Z,4.88
2022-10-02T15:47:56.275Z,3.10
2022-10-02T15:50:31.932Z,4.43
2022-10-02T15:53:23.277Z,5.88
2022-10-02T15:56:37.851Z,7.68
2022-10-02T15:59:22.471Z,4.07
2022-10-02T16:02:26.328Z,7.57
2022-10-02T16:05:13.129Z,5.10
2022-10-02T16:08:06.490Z,5.03
2022-10-02T16:10:54.664Z,6.43
2022-10-02T16:13:50.084Z,3.97
2022-10-02T16:16:46.530Z,3.45
2022-10-02T16:19:34.540Z,5.60
2022-10-02T16:22:07.203Z,5.07
2022-10-02T16:27:21.108Z,4.57
2022-10-02T16:30:13.486Z,4.13
2022-10-02T16:32:46.055Z,2.20
2022-10-02T16:35:30.876Z,3.80
2022-10-02T16:38:07.284Z,2.35
2022-10-02T16:40:52.802Z,3.45
2022-10-02T16:44:00.845Z,3.72
2022-10-02T16:46:33.262Z,3.80
2022-10-02T16:49:08.591Z,2.13
2022-10-02T16:51:53.816Z,3.38
2022-10-02T16:54:37.779Z,3.38
2022-10-02T16:57:15.122Z,2.45
2022-10-02T17:00:04.396Z,2.95
2022-10-02T17:02:46.197Z,4.45
2022-10-02T17:05:25.113Z,2.35
2022-10-02T17:08:19.715Z,3.83
2022-10-02T17:11:10.718Z,4.13
2022-10-02T17:13:54.559Z,3.78
2022-10-02T17:16:37.361Z,5.15
2022-10-02T17:21:58.803Z,5.47
2022-10-02T17:24:35.251Z,4.82
2022-10-02T17:27:19.272Z,5.60
2022-10-02T17:30:18.856Z,3.30
2022-10-02T17:32:50.855Z,5.47
2022-10-02T17:35:39.952Z,4.55
2022-10-02T17:38:28.906Z,4.32
2022-10-02T17:41:28.363Z,2.83
2022-10-02T17:44:13.742Z,4.50
2022-10-02T17:47:24.900Z,3.00
2022-10-02T17:50:16.399Z,5.57
2022-10-02T17:53:21.551Z,2.58
2022-10-02T17:56:28.227Z,4.10
2022-10-02T17:59:28.372Z,4.85
2022-10-02T18:02:11.064Z,3.83
2022-10-02T18:05:01.489Z,3.83
2022-10-02T18:07:43.791Z,3.13
2022-10-02T18:10:37.659Z,3.33
2022-10-02T18:13:15.964Z,2.40
2022-10-02T18:15:54.447Z,4.72
2022-10-02T18:18:39.754Z,2.53
2022-10-02T18:21:22.713Z,2.28
2022-10-02T18:26:57.046Z,3.85
2022-10-02T18:29:29.451Z,4.60
2022-10-02T18:32:16.548Z,4.07
2022-10-02T18:34:46.118Z,3.17
2022-10-02T18:37:52.152Z,4.72
2022-10-02T18:40:25.688Z,4.30
2022-10-02T18:43:13.665Z,7.03
2022-10-02T18:46:11.551Z,6.65
2022-10-02T18:48:57.206Z,6.63
2022-10-02T18:51:38.819Z,9.00
2022-10-02T18:54:11.787Z,4.50
2022-10-02T18:59:32.960Z,7.15
2022-10-02T19:02:27.862Z,4.57
2022-10-02T19:05:02.555Z,8.52
2022-10-02T19:07:39.869Z,5.57
2022-10-02T19:10:26.314Z,7.10
2022-10-02T19:12:56.668Z,7.95
2022-10-02T19:15:27.730Z,5.47
2022-10-02T19:18:15.623Z,4.65
2022-10-02T19:20:57.083Z,4.63
2022-10-02T19:23:31.953Z,5.18
2022-10-02T19:26:16.749Z,4.50
2022-10-02T19:28:49.404Z,1.98
2022-10-02T19:31:26.891Z,2.50
2022-10-02T19:33:57.524Z,4.97
2022-10-02T19:36:31.121Z,2.78
2022-10-02T19:39:04.895Z,6.28
2022-10-02T19:41:37.168Z,2.42
2022-10-02T19:44:14.192Z,4.25
2022-10-02T19:46:44.192Z,4.97
2022-10-02T19:49:34.238Z,6.47
2022-10-02T19:52:01.103Z,3.92
2022-10-02T19:54:37.549Z,5.32
2022-10-02T19:57:18.065Z,4.95
2022-10-02T19:59:52.222Z,4.63
2022-10-02T20:02:30.508Z,3.20
2022-10-02T20:05:01.302Z,4.50
2022-10-02T20:07:31.610Z,5.47
2022-10-02T20:10:03.315Z,4.13
2022-10-02T20:12:38.437Z,5.47
2022-10-02T20:15:38.739Z,5.18
2022-10-02T20:18:06.296Z,5.10
2022-10-02T20:20:35.933Z,6.10
2022-10-02T20:23:10.169Z,5.47
2022-10-02T20:25:45.380Z,5.00
2022-10-02T20:28:12.144Z,6.93
2022-10-02T20:30:42.767Z,6.47
2022-10-02T20:33:27.646Z,8.30
2022-10-02T20:36:17.065Z,5.05
2022-10-02T20:38:52.106Z,4.50
2022-10-02T20:41:24.894Z,5.45
2022-10-02T20:46:27.950Z,3.38
2022-10-02T20:52:01.840Z,4.50
2022-10-02T20:54:43.735Z,5.50
2022-10-02T20:58:00.556Z,5.55
2022-10-02T21:00:42.972Z,2.92
2022-10-02T21:03:50.100Z,5.75
2022-10-02T21:06:38.711Z,4.30
2022-10-02T21:09:14.660Z,4.38
2022-10-02T21:12:03.192Z,4.63
2022-10-02T21:14:43.174Z,4.22
2022-10-02T21:17:57.653Z,4.80
2022-10-02T21:20:59.658Z,3.72
2022-10-02T21:24:07.367Z,5.93
2022-10-02T21:26:55.743Z,5.40
2022-10-02T21:29:46.371Z,8.23
2022-10-02T21:32:23.173Z,8.50
2022-10-02T21:35:17.437Z,4.60
2022-10-02T21:38:08.503Z,4.68
2022-10-02T21:41:12.668Z,5.95
2022-10-02T21:44:03.570Z,4.97
2022-10-02T21:46:48.206Z,5.30
2022-10-02T21:49:35.800Z,7.93
2022-10-02T21:52:08.412Z,5.13
2022-10-02T21:54:41.173Z,4.32
2022-10-02T21:57:16.621Z,4.10
2022-10-02T21:59:52.066Z,4.90
2022-10-02T22:02:58.278Z,5.38
2022-10-02T22:05:33.986Z,5.28
2022-10-02T22:08:08.097Z,4.70
2022-10-02T22:10:56.078Z,3.72
2022-10-02T22:13:32.786Z,4.55
2022-10-02T22:16:34.472Z,3.67
2022-10-02T22:19:25.389Z,5.05
2022-10-02T22:21:57.825Z,4.50
2022-10-02T22:24:55.102Z,3.10
2022-10-02T22:27:43.426Z,3.40
2022-10-02T22:30:28.044Z,4.18
2022-10-02T22:33:13.239Z,2.97
2022-10-02T22:36:00.833Z,3.35
2022-10-02T22:38:40.228Z,5.25
2022-10-02T22:41:09.674Z,3.30
2022-10-02T22:43:55.609Z,4.47
2022-10-02T22:46:44.111Z,3.88
2022-10-02T22:49:25.316Z,4.85
2022-10-02T22:52:10.435Z,2.72
2022-10-02T22:54:45.202Z,3.60
2022-10-02T22:57:32.049Z,5.20
2022-10-02T23:00:12.268Z,2.67
2022-10-02T23:02:52.205Z,3.03
2022-10-02T23:05:31.230Z,4.07
2022-10-02T23:08:06.629Z,2.80
2022-10-02T23:10:46.646Z,4.93
2022-10-02T23:13:30.324Z,2.97
2022-10-02T23:16:06.065Z,4.25
2022-10-02T23:18:35.431Z,1.65
2022-10-02T23:21:28.602Z,2.30
2022-10-02T23:24:04.950Z,4.38
2022-10-02T23:26:43.522Z,3.10
2022-10-02T23:29:24.911Z,3.10
2022-10-02T23:32:04.851Z,1.85
2022-10-02T23:34:48.906Z,3.63
2022-10-02T23:37:27.596Z,2.63
2022-10-02T23:40:03.720Z,5.55
2022-10-02T23:42:39.456Z,2.95
2022-10-02T23:45:26.581Z,4.90
2022-10-02T23:48:04.193Z,1.75
2022-10-02T23:50:43.927Z,2.42
2022-10-02T23:53:24.069Z,2.40
2022-10-02T23:56:08.367Z,2.53
2022-10-02T23:58:38.504Z,2.53
